createdAt,value
2022-11-15T00:00:53.720Z,12.99
2022-11-15T00:03:23.253Z,12.92
2022-11-15T00:05:50.577Z,12.90
2022-11-15T00:08:17.208Z,12.93
2022-11-15T00:10:44.331Z,12.89
2022-11-15T00:13:13.405Z,12.85
2022-11-15T00:15:41.816Z,12.87
2022-11-15T00:18:14.269Z,13.00
2022-11-15T00:20:41.024Z,12.98
2022-11-15T00:23:07.949Z,12.92
2022-11-15T00:25:34.952Z,12.93
2022-11-15T00:28:02.100Z,12.92
2022-11-15T00:30:29.356Z,12.93
2022-11-15T00:32:56.320Z,12.90
2022-11-15T00:35:23.376Z,12.93
2022-11-15T00:37:49.848Z,12.98
2022-11-15T00:40:16.676Z,12.96
2022-11-15T00:42:43.473Z,12.93
2022-11-15T00:45:10.551Z,13.04
2022-11-15T00:47:37.141Z,13.04
2022-11-15T00:50:04.146Z,13.15
2022-11-15T00:52:30.685Z,13.07
2022-11-15T00:54:57.258Z,13.11
2022-11-15T00:57:24.523Z,13.12
2022-11-15T00:59:51.001Z,13.17
2022-11-15T01:02:17.513Z,13.04
2022-11-15T01:04:43.989Z,13.05
2022-11-15T01:07:10.608Z,12.99
2022-11-15T01:09:37.409Z,12.90
2022-11-15T01:12:04.253Z,12.97
2022-11-15T01:14:30.827Z,12.99
2022-11-15T01:16:57.525Z,13.00
2022-11-15T01:19:24.362Z,13.16
2022-11-15T01:21:51.517Z,13.10
2022-11-15T01:24:18.731Z,13.15
2022-11-15T01:26:45.225Z,13.15
2022-11-15T01:29:11.779Z,13.09
2022-11-15T01:31:38.998Z,13.03
2022-11-15T01:34:05.486Z,13.05
2022-11-15T01:36:31.994Z,13.05
2022-11-15T01:38:59.516Z,13.01
2022-11-15T01:41:29.014Z,12.99
2022-11-15T01:43:58.198Z,12.95
2022-11-15T01:46:38.814Z,12.96
2022-11-15T01:49:14.035Z,12.99
2022-11-15T01:51:40.779Z,12.98
2022-11-15T01:54:13.317Z,12.92
2022-11-15T01:56:47.476Z,12.83
2022-11-15T01:59:14.645Z,12.85
2022-11-15T02:01:41.673Z,12.87
2022-11-15T02:04:12.118Z,12.90
2022-11-15T02:06:40.734Z,12.85
2022-11-15T02:09:07.244Z,12.86
2022-11-15T02:11:34.036Z,12.85
2022-11-15T02:14:03.315Z,12.93
2022-11-15T02:16:39.002Z,12.98
2022-11-15T02:19:33.096Z,12.99
2022-11-15T02:22:15.555Z,13.02
2022-11-15T02:25:04.513Z,13.01
2022-11-15T02:27:54.782Z,13.05
2022-11-15T02:30:45.733Z,13.09
2022-11-15T02:33:43.540Z,13.07
2022-11-15T02:36:23.265Z,13.18
2022-11-15T02:38:59.946Z,13.15
2022-11-15T02:41:34.562Z,13.08
2022-11-15T02:44:08.435Z,13.15
2022-11-15T02:47:01.118Z,13.08
2022-11-15T02:49:32.372Z,13.12
2022-11-15T02:51:59.013Z,13.11
2022-11-15T02:54:27.997Z,13.08
2022-11-15T02:56:57.104Z,13.13
2022-11-15T02:59:43.786Z,13.18
2022-11-15T03:02:28.943Z,13.09
2022-11-15T03:05:31.215Z,13.20
2022-11-15T03:08:20.357Z,13.32
2022-11-15T03:11:05.435Z,13.32
2022-11-15T03:13:57.439Z,13.20
2022-11-15T03:16:43.376Z,13.28
2022-11-15T03:19:21.774Z,13.36
2022-11-15T03:21:49.860Z,13.32
2022-11-15T03:24:25.644Z,13.32
2022-11-15T03:26:56.060Z,13.33
2022-11-15T03:29:28.637Z,13.36
2022-11-15T03:32:01.395Z,13.28
2022-11-15T03:34:34.041Z,13.40
2022-11-15T03:37:01.519Z,13.43
2022-11-15T03:39:29.957Z,13.50
2022-11-15T03:42:08.060Z,13.44
2022-11-15T03:44:49.557Z,13.49
2022-11-15T03:47:22.732Z,13.45
2022-11-15T03:50:00.830Z,13.58
2022-11-15T03:52:32.461Z,13.50
2022-11-15T03:55:02.362Z,13.55
2022-11-15T03:57:29.149Z,13.59
2022-11-15T03:59:55.658Z,13.58
2022-11-15T04:02:22.201Z,13.53
2022-11-15T04:04:48.737Z,13.53
2022-11-15T04:07:15.498Z,13.57
2022-11-15T04:10:00.622Z,13.44
2022-11-15T04:12:33.554Z,13.50
2022-11-15T04:15:10.577Z,13.48
2022-11-15T04:17:48.908Z,13.42
2022-11-15T04:20:42.481Z,13.53
2022-11-15T04:23:34.008Z,13.46
2022-11-15T04:26:08.121Z,13.36
2022-11-15T04:28:35.171Z,13.42
2022-11-15T04:31:01.714Z,13.34
2022-11-15T04:33:28.219Z,13.51
2022-11-15T04:36:13.479Z,13.44
2022-11-15T04:38:39.969Z,13.52
2022-11-15T04:41:06.661Z,13.54
2022-11-15T04:43:33.508Z,13.56
2022-11-15T04:46:00.280Z,13.56
2022-11-15T04:48:26.784Z,13.58
2022-11-15T04:50:53.352Z,13.60
2022-11-15T04:53:19.842Z,13.54
2022-11-15T04:55:47.230Z,13.58
2022-11-15T04:58:13.935Z,13.58
2022-11-15T05:00:41.005Z,13.56
2022-11-15T05:03:26.597Z,13.66
2022-11-15T05:05:53.156Z,13.63
2022-11-15T05:08:19.666Z,13.65
2022-11-15T05:10:46.198Z,13.68
2022-11-15T05:13:12.741Z,13.74
2022-11-15T05:15:39.270Z,13.71
2022-11-15T05:18:05.831Z,13.69
2022-11-15T05:20:32.399Z,13.80
2022-11-15T05:22:59.082Z,13.84
2022-11-15T05:25:26.158Z,13.92
2022-11-15T05:27:52.733Z,13.83
2022-11-15T05:30:19.437Z,13.77
2022-11-15T05:32:46.235Z,13.80
2022-11-15T05:35:31.894Z,13.84
2022-11-15T05:37:58.700Z,13.85
2022-11-15T05:40:25.720Z,13.83
2022-11-15T05:42:52.350Z,13.91
2022-11-15T05:45:23.925Z,13.88
2022-11-15T05:47:56.192Z,13.79
2022-11-15T05:50:22.735Z,13.87
2022-11-15T05:52:49.657Z,13.83
2022-11-15T05:55:16.705Z,13.86
2022-11-15T05:57:43.416Z,13.79
2022-11-15T06:00:10.948Z,13.88
2022-11-15T06:02:37.469Z,13.81
2022-11-15T06:05:04.462Z,13.82
2022-11-15T06:07:31.206Z,13.88
2022-11-15T06:09:57.941Z,13.88
2022-11-15T06:12:24.483Z,13.83
2022-11-15T06:14:50.961Z,13.91
2022-11-15T06:17:17.416Z,13.94
2022-11-15T06:19:43.958Z,13.92
2022-11-15T06:22:10.797Z,13.91
2022-11-15T06:24:37.273Z,13.88
2022-11-15T06:27:03.896Z,13.88
2022-11-15T06:29:30.371Z,13.81
2022-11-15T06:31:56.884Z,13.84
2022-11-15T06:34:23.465Z,13.98
2022-11-15T06:36:49.944Z,13.97
2022-11-15T06:39:16.702Z,13.96
2022-11-15T06:41:43.184Z,13.90
2022-11-15T06:44:10.146Z,13.95
2022-11-15T06:46:36.686Z,13.93
2022-11-15T06:49:08.389Z,14.00
2022-11-15T06:51:36.128Z,14.00
2022-11-15T06:54:02.791Z,14.03
2022-11-15T06:56:29.371Z,14.09
2022-11-15T06:58:56.753Z,14.11
2022-11-15T07:01:23.352Z,14.08
2022-11-15T07:03:50.013Z,14.11
2022-11-15T07:06:16.537Z,14.14
2022-11-15T07:08:43.771Z,14.18
2022-11-15T07:11:10.597Z,14.21
2022-11-15T07:13:38.247Z,14.21
2022-11-15T07:16:07.025Z,14.26
2022-11-15T07:18:37.601Z,14.20
2022-11-15T07:21:05.556Z,14.25
2022-11-15T07:23:32.820Z,14.30
2022-11-15T07:26:00.289Z,14.40
2022-11-15T07:28:27.405Z,14.26
2022-11-15T07:30:54.543Z,14.29
2022-11-15T07:33:21.139Z,14.37
2022-11-15T07:35:51.016Z,14.34
2022-11-15T07:38:21.157Z,14.40
2022-11-15T07:40:48.501Z,14.36
2022-11-15T07:43:15.792Z,14.46
2022-11-15T07:45:46.661Z,14.44
2022-11-15T07:48:13.380Z,14.46
2022-11-15T07:50:43.495Z,14.47
2022-11-15T07:53:11.378Z,14.49
2022-11-15T07:55:38.303Z,14.47
2022-11-15T07:58:06.704Z,14.51
2022-11-15T08:00:34.490Z,14.48
2022-11-15T08:03:09.491Z,14.53
2022-11-15T08:05:37.167Z,14.51
2022-11-15T08:08:04.338Z,14.51
2022-11-15T08:10:32.605Z,14.60
2022-11-15T08:13:04.816Z,14.56
2022-11-15T08:15:31.981Z,14.55
2022-11-15T08:18:01.724Z,14.58
2022-11-15T08:20:30.729Z,14.65
2022-11-15T08:22:58.400Z,14.61
2022-11-15T08:25:27.346Z,14.63
2022-11-15T08:27:57.240Z,14.69
2022-11-15T08:30:24.981Z,14.70
2022-11-15T08:32:52.968Z,14.75
2022-11-15T08:35:24.892Z,14.85
2022-11-15T08:37:55.545Z,14.77
2022-11-15T08:40:22.975Z,14.74
2022-11-15T08:42:50.077Z,14.79
2022-11-15T08:45:16.612Z,14.80
2022-11-15T08:47:43.082Z,14.84
2022-11-15T08:50:10.280Z,14.88
2022-11-15T08:52:36.882Z,15.04
2022-11-15T08:55:03.535Z,15.12
2022-11-15T08:57:31.418Z,15.07
2022-11-15T08:59:58.221Z,15.15
2022-11-15T09:02:24.722Z,15.21
2022-11-15T09:04:51.224Z,15.17
2022-11-15T09:07:17.968Z,15.25
2022-11-15T09:09:44.476Z,15.22
2022-11-15T09:12:11.004Z,15.16
2022-11-15T09:14:37.963Z,15.17
2022-11-15T09:17:04.864Z,15.23
2022-11-15T09:19:31.388Z,15.36
2022-11-15T09:21:57.867Z,15.27
2022-11-15T09:24:24.382Z,15.32
2022-11-15T09:26:52.400Z,15.35
2022-11-15T09:29:19.942Z,15.36
2022-11-15T09:31:46.539Z,15.40
2022-11-15T09:34:13.113Z,15.40
2022-11-15T09:36:39.674Z,15.47
2022-11-15T09:39:06.202Z,15.44
2022-11-15T09:41:49.450Z,15.55
2022-11-15T09:44:25.883Z,15.61
2022-11-15T09:47:00.697Z,15.75
2022-11-15T09:49:27.689Z,15.74
2022-11-15T09:51:55.433Z,15.62
2022-11-15T09:54:53.996Z,15.66
2022-11-15T09:57:36.103Z,15.63
2022-11-15T10:00:44.262Z,15.77
2022-11-15T10:03:08.876Z,15.77
2022-11-15T10:05:43.441Z,15.82
2022-11-15T10:08:41.564Z,15.76
2022-11-15T10:14:02.602Z,15.95
2022-11-15T10:16:29.036Z,16.00
2022-11-15T10:19:34.410Z,16.03
2022-11-15T10:22:03.746Z,16.07
2022-11-15T10:24:36.343Z,16.04
2022-11-15T10:27:10.857Z,16.24
2022-11-15T10:29:43.130Z,16.28
2022-11-15T10:32:14.974Z,16.42
2022-11-15T10:34:42.112Z,16.54
2022-11-15T10:37:08.995Z,16.70
2022-11-15T10:39:35.824Z,16.65
2022-11-15T10:42:28.989Z,16.70
2022-11-15T10:44:55.948Z,16.70
2022-11-15T10:47:28.179Z,16.76
2022-11-15T10:50:02.266Z,16.77
2022-11-15T10:52:30.917Z,16.84
2022-11-15T10:55:03.644Z,16.90
2022-11-15T10:57:38.382Z,16.87
2022-11-15T11:00:34.575Z,16.82
2022-11-15T11:03:10.447Z,16.75
2022-11-15T11:05:42.747Z,16.87
2022-11-15T11:08:12.275Z,16.92
2022-11-15T11:11:00.189Z,16.95
2022-11-15T11:13:30.923Z,16.93
2022-11-15T11:16:15.850Z,17.08
2022-11-15T11:18:52.851Z,16.97
2022-11-15T11:21:39.611Z,17.04
2022-11-15T11:24:20.402Z,17.15
2022-11-15T11:27:05.246Z,17.06
2022-11-15T11:29:39.719Z,16.96
2022-11-15T11:32:25.254Z,17.07
2022-11-15T11:35:07.717Z,17.11
2022-11-15T11:37:46.300Z,17.16
2022-11-15T11:40:31.216Z,17.27
2022-11-15T11:43:17.538Z,17.31
2022-11-15T11:46:21.461Z,17.53
2022-11-15T11:48:53.459Z,17.62
2022-11-15T11:51:33.683Z,17.58
2022-11-15T11:54:26.770Z,17.71
2022-11-15T11:56:55.361Z,17.67
2022-11-15T11:59:44.553Z,17.53
2022-11-15T12:02:26.955Z,17.54
2022-11-15T12:05:12.976Z,17.59
2022-11-15T12:07:40.524Z,17.53
2022-11-15T12:10:21.065Z,17.45
2022-11-15T12:12:50.493Z,17.41
2022-11-15T12:15:24.685Z,17.41
2022-11-15T12:17:51.311Z,17.54
2022-11-15T12:20:21.699Z,17.58
2022-11-15T12:23:11.279Z,17.57
2022-11-15T12:25:45.850Z,17.68
2022-11-15T12:28:22.009Z,17.81
2022-11-15T12:30:57.493Z,17.70
2022-11-15T12:33:41.057Z,17.75
2022-11-15T12:36:35.651Z,17.71
2022-11-15T12:39:05.165Z,17.82
2022-11-15T12:41:37.395Z,17.82
2022-11-15T12:44:05.475Z,17.80
2022-11-15T12:46:31.904Z,17.81
2022-11-15T12:49:11.592Z,17.67
2022-11-15T12:51:44.104Z,17.71
2022-11-15T12:54:22.800Z,17.70
2022-11-15T12:57:04.464Z,17.72
2022-11-15T12:59:56.475Z,17.75
2022-11-15T13:02:27.720Z,17.71
2022-11-15T13:05:14.556Z,17.76
2022-11-15T13:07:41.220Z,17.89
2022-11-15T13:10:13.620Z,17.84
2022-11-15T13:12:45.983Z,17.85
2022-11-15T13:15:12.544Z,17.83
2022-11-15T13:17:48.194Z,17.70
2022-11-15T13:20:17.690Z,17.78
2022-11-15T13:22:55.456Z,17.80
2022-11-15T13:25:34.261Z,17.80
2022-11-15T13:28:07.591Z,17.79
2022-11-15T13:30:34.678Z,17.79
2022-11-15T13:33:10.651Z,17.76
2022-11-15T13:35:41.152Z,17.63
2022-11-15T13:38:07.790Z,17.68
2022-11-15T13:40:38.806Z,17.68
2022-11-15T13:43:28.630Z,17.73
2022-11-15T13:46:15.298Z,17.79
2022-11-15T13:48:43.155Z,17.73
2022-11-15T13:51:22.290Z,17.65
2022-11-15T13:53:57.524Z,17.57
2022-11-15T13:56:24.678Z,17.47
2022-11-15T13:58:51.336Z,17.46
2022-11-15T14:01:21.637Z,17.65
2022-11-15T14:04:06.334Z,17.66
2022-11-15T14:06:32.977Z,17.49
2022-11-15T14:09:10.907Z,17.42
2022-11-15T14:11:38.572Z,17.32
2022-11-15T14:14:14.208Z,17.19
2022-11-15T14:16:46.314Z,17.18
2022-11-15T14:19:34.728Z,17.24
2022-11-15T14:22:23.900Z,17.25
2022-11-15T14:25:21.066Z,17.23
2022-11-15T14:28:15.643Z,17.23
2022-11-15T14:30:47.260Z,17.18
2022-11-15T14:33:36.709Z,17.14
2022-11-15T14:36:05.193Z,17.07
2022-11-15T14:38:32.734Z,17.06
2022-11-15T14:40:59.679Z,17.03
2022-11-15T14:43:26.451Z,17.12
2022-11-15T14:45:53.080Z,17.18
2022-11-15T14:48:19.642Z,17.16
2022-11-15T14:50:46.479Z,17.20
2022-11-15T14:53:18.056Z,17.26
2022-11-15T14:55:44.866Z,17.13
2022-11-15T14:58:11.684Z,17.04
2022-11-15T15:00:41.019Z,17.11
2022-11-15T15:03:08.401Z,17.07
2022-11-15T15:05:38.299Z,17.13
2022-11-15T15:08:06.409Z,17.20
2022-11-15T15:10:41.374Z,17.13
2022-11-15T15:13:27.003Z,17.00
2022-11-15T15:15:53.824Z,16.91
2022-11-15T15:18:21.226Z,16.86
2022-11-15T15:20:55.815Z,16.87
2022-11-15T15:23:23.989Z,16.84
2022-11-15T15:25:51.544Z,16.83
2022-11-15T15:28:18.284Z,16.82
2022-11-15T15:30:44.844Z,16.85
2022-11-15T15:33:11.540Z,16.84
2022-11-15T15:35:38.322Z,16.78
2022-11-15T15:38:06.461Z,16.79
2022-11-15T15:40:34.288Z,16.83
2022-11-15T15:43:02.283Z,16.79
2022-11-15T15:45:30.828Z,16.77
2022-11-15T15:47:57.410Z,16.69
2022-11-15T15:50:33.578Z,16.68
2022-11-15T15:53:02.122Z,16.72
2022-11-15T15:55:29.616Z,16.69
2022-11-15T15:57:56.442Z,16.64
2022-11-15T16:00:25.618Z,16.56
2022-11-15T16:02:53.148Z,16.57
2022-11-15T16:05:20.466Z,16.51
2022-11-15T16:07:48.453Z,16.52
2022-11-15T16:10:21.027Z,16.55
2022-11-15T16:12:48.273Z,16.63
2022-11-15T16:15:15.247Z,16.58
2022-11-15T16:17:49.452Z,16.59
2022-11-15T16:20:22.076Z,16.64
2022-11-15T16:22:48.748Z,16.56
2022-11-15T16:25:15.563Z,16.41
2022-11-15T16:27:45.916Z,16.42
2022-11-15T16:30:17.474Z,16.36
2022-11-15T16:32:44.508Z,16.36
2022-11-15T16:35:13.763Z,16.44
2022-11-15T16:37:41.593Z,16.33
2022-11-15T16:40:33.421Z,16.24
2022-11-15T16:43:02.824Z,16.15
2022-11-15T16:45:29.487Z,16.03
2022-11-15T16:47:56.547Z,16.11
2022-11-15T16:50:25.172Z,16.01
2022-11-15T16:52:53.220Z,16.01
2022-11-15T16:55:21.292Z,15.97
2022-11-15T16:57:48.372Z,15.88
2022-11-15T17:00:16.682Z,15.88
2022-11-15T17:02:45.242Z,15.87
2022-11-15T17:05:17.281Z,15.93
2022-11-15T17:07:52.373Z,15.96
2022-11-15T17:10:19.093Z,15.91
2022-11-15T17:12:45.594Z,15.95
2022-11-15T17:15:13.694Z,15.90
2022-11-15T17:17:41.120Z,15.90
2022-11-15T17:20:16.574Z,15.88
2022-11-15T17:22:43.464Z,15.94
2022-11-15T17:25:10.741Z,16.01
2022-11-15T17:27:37.278Z,16.02
2022-11-15T17:30:05.250Z,15.85
2022-11-15T17:32:31.740Z,15.90
2022-11-15T17:34:58.297Z,15.81
2022-11-15T17:37:24.832Z,15.84
2022-11-15T17:39:51.332Z,15.80
2022-11-15T17:42:18.004Z,15.65
2022-11-15T17:44:44.577Z,15.72
2022-11-15T17:47:11.159Z,15.70
2022-11-15T17:49:40.712Z,15.71
2022-11-15T17:52:07.847Z,15.61
2022-11-15T17:54:34.427Z,15.51
2022-11-15T17:57:01.520Z,15.48
2022-11-15T17:59:28.085Z,15.41
2022-11-15T18:01:54.620Z,15.35
2022-11-15T18:04:21.741Z,15.33
2022-11-15T18:06:48.256Z,15.36
2022-11-15T18:09:15.022Z,15.42
2022-11-15T18:11:43.166Z,15.39
2022-11-15T18:14:19.672Z,15.37
2022-11-15T18:16:46.253Z,15.37
2022-11-15T18:19:13.834Z,15.40
2022-11-15T18:21:58.941Z,15.43
2022-11-15T18:24:31.258Z,15.43
2022-11-15T18:27:00.286Z,15.47
2022-11-15T18:29:27.012Z,15.42
2022-11-15T18:31:57.431Z,15.42
2022-11-15T18:34:26.137Z,15.38
2022-11-15T18:36:53.095Z,15.41
2022-11-15T18:39:20.120Z,15.34
2022-11-15T18:41:46.904Z,15.39
2022-11-15T18:44:14.963Z,15.49
2022-11-15T18:46:47.933Z,15.40
2022-11-15T18:49:16.729Z,15.30
2022-11-15T18:51:43.897Z,15.29
2022-11-15T18:54:14.006Z,15.27
2022-11-15T18:56:41.639Z,15.31
2022-11-15T18:59:08.765Z,15.34
2022-11-15T19:01:40.431Z,15.49
2022-11-15T19:04:12.569Z,15.76
2022-11-15T19:06:44.492Z,16.03
2022-11-15T19:09:15.184Z,16.05
2022-11-15T19:11:42.595Z,15.85
2022-11-15T19:14:11.149Z,15.80
2022-11-15T19:16:40.226Z,14.83
2022-11-15T19:19:10.449Z,14.62
2022-11-15T19:21:37.057Z,14.55
2022-11-15T19:24:04.533Z,14.57
2022-11-15T19:26:31.072Z,14.48
2022-11-15T19:29:00.120Z,14.39
2022-11-15T19:31:28.452Z,14.36
2022-11-15T19:33:55.957Z,14.24
2022-11-15T19:36:28.624Z,14.32
2022-11-15T19:38:56.099Z,14.30
2022-11-15T19:41:24.185Z,14.27
2022-11-15T19:43:52.004Z,14.32
2022-11-15T19:46:20.895Z,14.14
2022-11-15T19:48:47.820Z,14.09
2022-11-15T19:51:21.564Z,14.03
2022-11-15T19:53:49.485Z,14.01
2022-11-15T19:56:18.099Z,13.98
2022-11-15T19:58:45.749Z,13.95
2022-11-15T20:01:21.357Z,13.97
2022-11-15T20:03:50.143Z,13.75
2022-11-15T20:06:19.247Z,13.72
2022-11-15T20:08:47.877Z,13.71
2022-11-15T20:11:15.461Z,13.59
2022-11-15T20:13:43.019Z,13.62
2022-11-15T20:16:14.769Z,13.64
2022-11-15T20:18:41.499Z,13.65
2022-11-15T20:21:09.557Z,13.71
2022-11-15T20:23:36.221Z,13.59
2022-11-15T20:26:03.037Z,13.72
2022-11-15T20:28:29.557Z,13.68
2022-11-15T20:30:58.372Z,13.57
2022-11-15T20:33:25.420Z,13.41
2022-11-15T20:35:52.677Z,13.43
2022-11-15T20:38:20.481Z,13.38
2022-11-15T20:40:56.016Z,13.33
2022-11-15T20:43:26.308Z,13.28
2022-11-15T20:45:52.803Z,13.32
2022-11-15T20:48:19.604Z,13.25
2022-11-15T20:50:47.230Z,13.26
2022-11-15T20:53:18.121Z,13.24
2022-11-15T20:55:47.922Z,13.36
2022-11-15T20:58:15.574Z,13.32
2022-11-15T21:00:43.384Z,13.27
2022-11-15T21:03:10.833Z,13.29
2022-11-15T21:05:42.661Z,13.25
2022-11-15T21:08:11.164Z,13.25
2022-11-15T21:10:56.356Z,13.26
2022-11-15T21:13:23.024Z,13.15
2022-11-15T21:15:49.579Z,13.09
2022-11-15T21:18:16.414Z,13.23
2022-11-15T21:20:43.066Z,13.13
2022-11-15T21:23:10.700Z,13.08
2022-11-15T21:25:37.197Z,13.07
2022-11-15T21:28:03.872Z,13.10
2022-11-15T21:30:30.780Z,13.11
2022-11-15T21:32:57.299Z,13.11
2022-11-15T21:35:23.950Z,13.09
2022-11-15T21:37:56.192Z,13.06
2022-11-15T21:40:23.796Z,13.05
2022-11-15T21:42:50.648Z,13.08
2022-11-15T21:45:17.385Z,13.07
2022-11-15T21:47:46.304Z,13.06
2022-11-15T21:50:14.012Z,13.14
2022-11-15T21:52:41.933Z,13.09
2022-11-15T21:55:09.283Z,13.12
2022-11-15T21:57:35.792Z,13.08
2022-11-15T22:00:21.075Z,13.24
2022-11-15T22:02:47.563Z,13.24
2022-11-15T22:05:14.211Z,13.07
2022-11-15T22:07:41.095Z,13.07
2022-11-15T22:10:07.964Z,13.06
2022-11-15T22:12:34.660Z,13.07
2022-11-15T22:15:01.137Z,13.00
2022-11-15T22:17:47.621Z,13.05
2022-11-15T22:20:42.457Z,12.96
2022-11-15T22:23:02.182Z,12.98
2022-11-15T22:25:29.913Z,13.02
2022-11-15T22:27:57.244Z,12.96
2022-11-15T22:30:24.358Z,13.10
2022-11-15T22:32:50.887Z,12.99
2022-11-15T22:35:17.563Z,13.08
2022-11-15T22:37:44.562Z,13.15
2022-11-15T22:40:11.089Z,13.10
2022-11-15T22:42:37.626Z,13.14
2022-11-15T22:45:04.499Z,13.14
2022-11-15T22:47:31.010Z,13.02
2022-11-15T22:49:57.967Z,13.02
2022-11-15T22:52:24.470Z,12.97
2022-11-15T22:54:51.220Z,12.94
2022-11-15T22:57:17.716Z,12.97
2022-11-15T22:59:44.608Z,13.09
2022-11-15T23:02:11.099Z,13.05
2022-11-15T23:04:37.672Z,12.94
2022-11-15T23:07:04.548Z,12.89
2022-11-15T23:09:31.113Z,12.97
2022-11-15T23:12:15.945Z,12.91
2022-11-15T23:14:42.428Z,12.93
2022-11-15T23:17:09.464Z,12.92
2022-11-15T23:19:36.039Z,12.96
2022-11-15T23:22:21.132Z,12.95
2022-11-15T23:24:47.708Z,12.97
2022-11-15T23:27:19.811Z,13.03
2022-11-15T23:30:06.085Z,12.98
2022-11-15T23:32:55.973Z,13.08
2022-11-15T23:35:22.446Z,13.05
2022-11-15T23:37:49.059Z,13.02
2022-11-15T23:40:15.670Z,13.01
2022-11-15T23:42:42.292Z,13.00
2022-11-15T23:45:09.120Z,13.06
2022-11-15T23:47:35.615Z,12.94
2022-11-15T23:50:02.165Z,13.05
2022-11-15T23:52:28.676Z,13.05
2022-11-15T23:54:55.166Z,13.02
2022-11-15T23:57:21.640Z,13.12
2022-11-15T23:59:48.262Z,13.08
